sensor_id;sensor_type;location;lat;lon;timestamp;P1;durP1;ratioP1;P2;durP2;ratioP2
11488;SDS011;5801;50.804;12.638;2023-10-19T00:02:05;13.30;;;6.13;;
11488;SDS011;5801;50.804;12.638;2023-10-19T00:04:37;10.55;;;6.07;;
11488;SDS011;5801;50.804;12.638;2023-10-19T00:07:05;9.55;;;5.85;;
11488;SDS011;5801;50.804;12.638;2023-10-19T00:09:32;8.40;;;5.63;;
11488;SDS011;5801;50.804;12.638;2023-10-19T00:12:03;10.63;;;6.45;;
11488;SDS011;5801;50.804;12.638;2023-10-19T00:14:31;8.40;;;5.70;;
11488;SDS011;5801;50.804;12.638;2023-10-19T00:16:57;10.88;;;6.72;;
11488;SDS011;5801;50.804;12.638;2023-10-19T00:19:30;13.43;;;6.05;;
11488;SDS011;5801;50.804;12.638;2023-10-19T00:22:04;13.70;;;5.80;;
11488;SDS011;5801;50.804;12.638;2023-10-19T00:24:34;11.60;;;6.43;;
11488;SDS011;5801;50.804;12.638;2023-10-19T00:27:00;12.80;;;6.57;;
11488;SDS011;5801;50.804;12.638;2023-10-19T00:29:41;11.60;;;6.15;;
11488;SDS011;5801;50.804;12.638;2023-10-19T00:32:13;9.65;;;6.78;;
11488;SDS011;5801;50.804;12.638;2023-10-19T00:34:40;9.48;;;5.57;;
11488;SDS011;5801;50.804;12.638;2023-10-19T00:37:08;14.57;;;6.60;;
11488;SDS011;5801;50.804;12.638;2023-10-19T00:39:35;8.73;;;6.13;;
11488;SDS011;5801;50.804;12.638;2023-10-19T00:42:11;10.48;;;6.18;;
11488;SDS011;5801;50.804;12.638;2023-10-19T00:44:40;9.32;;;6.03;;
11488;SDS011;5801;50.804;12.638;2023-10-19T00:47:14;9.73;;;5.82;;
11488;SDS011;5801;50.804;12.638;2023-10-19T00:49:44;13.32;;;6.40;;
11488;SDS011;5801;50.804;12.638;2023-10-19T00:52:13;12.55;;;6.75;;
11488;SDS011;5801;50.804;12.638;2023-10-19T00:54:48;11.95;;;6.50;;
11488;SDS011;5801;50.804;12.638;2023-10-19T00:57:18;9.48;;;5.82;;
11488;SDS011;5801;50.804;12.638;2023-10-19T00:59:57;9.15;;;6.05;;
11488;SDS011;5801;50.804;12.638;2023-10-19T01:02:48;10.07;;;6.15;;
11488;SDS011;5801;50.804;12.638;2023-10-19T01:05:16;9.98;;;6.05;;
11488;SDS011;5801;50.804;12.638;2023-10-19T01:07:46;8.60;;;5.97;;
11488;SDS011;5801;50.804;12.638;2023-10-19T01:10:18;8.65;;;5.50;;
11488;SDS011;5801;50.804;12.638;2023-10-19T01:12:48;8.13;;;5.85;;
11488;SDS011;5801;50.804;12.638;2023-10-19T01:15:18;7.35;;;5.65;;
11488;SDS011;5801;50.804;12.638;2023-10-19T01:17:58;7.72;;;5.85;;
11488;SDS011;5801;50.804;12.638;2023-10-19T01:23:07;11.32;;;5.57;;
11488;SDS011;5801;50.804;12.638;2023-10-19T01:25:53;7.95;;;5.97;;
11488;SDS011;5801;50.804;12.638;2023-10-19T01:28:35;9.55;;;6.03;;
11488;SDS011;5801;50.804;12.638;2023-10-19T01:31:19;7.97;;;6.10;;
11488;SDS011;5801;50.804;12.638;2023-10-19T01:33:52;11.10;;;6.30;;
11488;SDS011;5801;50.804;12.638;2023-10-19T01:36:20;10.02;;;6.53;;
11488;SDS011;5801;50.804;12.638;2023-10-19T01:38:47;11.30;;;6.45;;
11488;SDS011;5801;50.804;12.638;2023-10-19T01:41:14;9.98;;;5.68;;
11488;SDS011;5801;50.804;12.638;2023-10-19T01:43:43;14.85;;;7.15;;
11488;SDS011;5801;50.804;12.638;2023-10-19T01:46:12;9.75;;;6.10;;
11488;SDS011;5801;50.804;12.638;2023-10-19T01:48:46;11.35;;;6.85;;
11488;SDS011;5801;50.804;12.638;2023-10-19T01:51:18;11.98;;;6.80;;
11488;SDS011;5801;50.804;12.638;2023-10-19T01:53:45;10.60;;;6.78;;
11488;SDS011;5801;50.804;12.638;2023-10-19T01:56:12;9.40;;;7.03;;
11488;SDS011;5801;50.804;12.638;2023-10-19T01:58:41;14.80;;;7.18;;
11488;SDS011;5801;50.804;12.638;2023-10-19T02:01:14;18.58;;;7.35;;
11488;SDS011;5801;50.804;12.638;2023-10-19T02:03:54;10.70;;;6.70;;
11488;SDS011;5801;50.804;12.638;2023-10-19T02:06:25;11.88;;;7.50;;
11488;SDS011;5801;50.804;12.638;2023-10-19T02:08:59;12.52;;;7.40;;
11488;SDS011;5801;50.804;12.638;2023-10-19T02:11:48;9.32;;;6.95;;
11488;SDS011;5801;50.804;12.638;2023-10-19T02:14:23;10.30;;;6.95;;
11488;SDS011;5801;50.804;12.638;2023-10-19T02:16:54;10.65;;;7.00;;
11488;SDS011;5801;50.804;12.638;2023-10-19T02:19:22;11.30;;;7.20;;
11488;SDS011;5801;50.804;12.638;2023-10-19T02:21:50;11.50;;;7.25;;
11488;SDS011;5801;50.804;12.638;2023-10-19T02:24:18;9.77;;;7.18;;
11488;SDS011;5801;50.804;12.638;2023-10-19T02:26:45;13.88;;;7.38;;
11488;SDS011;5801;50.804;12.638;2023-10-19T02:29:14;11.15;;;7.25;;
11488;SDS011;5801;50.804;12.638;2023-10-19T02:31:40;11.77;;;7.47;;
11488;SDS011;5801;50.804;12.638;2023-10-19T02:34:07;11.52;;;7.13;;
11488;SDS011;5801;50.804;12.638;2023-10-19T02:36:35;10.63;;;7.07;;
11488;SDS011;5801;50.804;12.638;2023-10-19T02:39:03;12.52;;;7.13;;
11488;SDS011;5801;50.804;12.638;2023-10-19T02:41:41;10.65;;;7.75;;
11488;SDS011;5801;50.804;12.638;2023-10-19T02:44:18;14.27;;;7.35;;
11488;SDS011;5801;50.804;12.638;2023-10-19T02:46:48;13.35;;;6.45;;
11488;SDS011;5801;50.804;12.638;2023-10-19T02:49:23;12.65;;;7.10;;
11488;SDS011;5801;50.804;12.638;2023-10-19T02:51:51;12.25;;;6.88;;
11488;SDS011;5801;50.804;12.638;2023-10-19T02:54:18;12.32;;;6.78;;
11488;SDS011;5801;50.804;12.638;2023-10-19T02:56:47;10.63;;;7.15;;
11488;SDS011;5801;50.804;12.638;2023-10-19T02:59:15;13.30;;;7.57;;
11488;SDS011;5801;50.804;12.638;2023-10-19T03:01:42;16.08;;;7.15;;
11488;SDS011;5801;50.804;12.638;2023-10-19T03:04:10;16.35;;;7.65;;
11488;SDS011;5801;50.804;12.638;2023-10-19T03:06:40;10.30;;;7.00;;
11488;SDS011;5801;50.804;12.638;2023-10-19T03:09:07;15.07;;;7.72;;
11488;SDS011;5801;50.804;12.638;2023-10-19T03:11:55;12.20;;;7.38;;
11488;SDS011;5801;50.804;12.638;2023-10-19T03:14:25;11.35;;;7.07;;
11488;SDS011;5801;50.804;12.638;2023-10-19T03:16:51;11.48;;;7.10;;
11488;SDS011;5801;50.804;12.638;2023-10-19T03:19:20;12.70;;;7.45;;
11488;SDS011;5801;50.804;12.638;2023-10-19T03:21:46;11.90;;;7.53;;
11488;SDS011;5801;50.804;12.638;2023-10-19T03:24:15;11.65;;;6.50;;
11488;SDS011;5801;50.804;12.638;2023-10-19T03:27:00;20.00;;;7.70;;
11488;SDS011;5801;50.804;12.638;2023-10-19T03:29:47;14.35;;;7.80;;
11488;SDS011;5801;50.804;12.638;2023-10-19T03:32:21;11.25;;;7.90;;
11488;SDS011;5801;50.804;12.638;2023-10-19T03:35:00;12.40;;;7.60;;
11488;SDS011;5801;50.804;12.638;2023-10-19T03:37:26;10.65;;;7.32;;
11488;SDS011;5801;50.804;12.638;2023-10-19T03:40:00;15.25;;;7.57;;
11488;SDS011;5801;50.804;12.638;2023-10-19T03:42:31;9.70;;;7.05;;
11488;SDS011;5801;50.804;12.638;2023-10-19T03:44:57;10.13;;;6.85;;
11488;SDS011;5801;50.804;12.638;2023-10-19T03:47:25;12.82;;;6.93;;
11488;SDS011;5801;50.804;12.638;2023-10-19T03:49:56;13.10;;;8.25;;
11488;SDS011;5801;50.804;12.638;2023-10-19T03:52:24;16.30;;;8.15;;
11488;SDS011;5801;50.804;12.638;2023-10-19T03:54:55;13.88;;;8.05;;
11488;SDS011;5801;50.804;12.638;2023-10-19T03:57:22;11.98;;;8.00;;
11488;SDS011;5801;50.804;12.638;2023-10-19T03:59:50;11.90;;;7.32;;
11488;SDS011;5801;50.804;12.638;2023-10-19T04:02:22;12.02;;;6.93;;
11488;SDS011;5801;50.804;12.638;2023-10-19T04:04:55;10.77;;;7.22;;
11488;SDS011;5801;50.804;12.638;2023-10-19T04:07:22;17.73;;;9.43;;
11488;SDS011;5801;50.804;12.638;2023-10-19T04:09:51;15.25;;;9.05;;
11488;SDS011;5801;50.804;12.638;2023-10-19T04:12:35;12.50;;;8.18;;
11488;SDS011;5801;50.804;12.638;2023-10-19T04:15:06;14.80;;;8.15;;
11488;SDS011;5801;50.804;12.638;2023-10-19T04:17:40;16.13;;;9.20;;
11488;SDS011;5801;50.804;12.638;2023-10-19T04:20:16;16.88;;;8.63;;
11488;SDS011;5801;50.804;12.638;2023-10-19T04:22:46;14.90;;;7.93;;
11488;SDS011;5801;50.804;12.638;2023-10-19T04:25:14;12.40;;;7.40;;
11488;SDS011;5801;50.804;12.638;2023-10-19T04:27:41;12.15;;;8.15;;
11488;SDS011;5801;50.804;12.638;2023-10-19T04:30:12;13.88;;;8.63;;
11488;SDS011;5801;50.804;12.638;2023-10-19T04:32:42;11.38;;;8.20;;
11488;SDS011;5801;50.804;12.638;2023-10-19T04:35:09;13.77;;;8.57;;
11488;SDS011;5801;50.804;12.638;2023-10-19T04:37:35;14.70;;;8.55;;
11488;SDS011;5801;50.804;12.638;2023-10-19T04:40:01;13.82;;;7.57;;
11488;SDS011;5801;50.804;12.638;2023-10-19T04:42:27;14.63;;;8.05;;
11488;SDS011;5801;50.804;12.638;2023-10-19T04:44:56;15.63;;;8.77;;
11488;SDS011;5801;50.804;12.638;2023-10-19T04:47:22;14.65;;;8.45;;
11488;SDS011;5801;50.804;12.638;2023-10-19T04:49:48;12.45;;;7.72;;
11488;SDS011;5801;50.804;12.638;2023-10-19T04:52:14;11.30;;;7.57;;
11488;SDS011;5801;50.804;12.638;2023-10-19T04:54:40;9.13;;;6.50;;
11488;SDS011;5801;50.804;12.638;2023-10-19T04:57:07;13.20;;;7.55;;
11488;SDS011;5801;50.804;12.638;2023-10-19T04:59:33;11.68;;;7.13;;
11488;SDS011;5801;50.804;12.638;2023-10-19T05:01:59;10.85;;;7.45;;
11488;SDS011;5801;50.804;12.638;2023-10-19T05:04:29;13.13;;;7.93;;
11488;SDS011;5801;50.804;12.638;2023-10-19T05:06:55;8.27;;;6.22;;
11488;SDS011;5801;50.804;12.638;2023-10-19T05:09:21;12.90;;;7.55;;
11488;SDS011;5801;50.804;12.638;2023-10-19T05:11:46;12.10;;;7.47;;
11488;SDS011;5801;50.804;12.638;2023-10-19T05:14:13;13.32;;;7.90;;
11488;SDS011;5801;50.804;12.638;2023-10-19T05:16:39;11.00;;;7.18;;
11488;SDS011;5801;50.804;12.638;2023-10-19T05:19:05;10.93;;;7.35;;
11488;SDS011;5801;50.804;12.638;2023-10-19T05:21:31;9.75;;;6.60;;
11488;SDS011;5801;50.804;12.638;2023-10-19T05:23:58;10.70;;;7.55;;
11488;SDS011;5801;50.804;12.638;2023-10-19T05:26:27;11.45;;;7.53;;
11488;SDS011;5801;50.804;12.638;2023-10-19T05:28:53;11.20;;;6.68;;
11488;SDS011;5801;50.804;12.638;2023-10-19T05:31:20;14.40;;;7.80;;
11488;SDS011;5801;50.804;12.638;2023-10-19T05:33:45;15.77;;;7.72;;
11488;SDS011;5801;50.804;12.638;2023-10-19T05:36:13;11.23;;;7.25;;
11488;SDS011;5801;50.804;12.638;2023-10-19T05:38:39;11.98;;;7.60;;
11488;SDS011;5801;50.804;12.638;2023-10-19T05:41:05;11.80;;;7.57;;
11488;SDS011;5801;50.804;12.638;2023-10-19T05:43:32;10.07;;;7.18;;
11488;SDS011;5801;50.804;12.638;2023-10-19T05:45:59;10.50;;;7.80;;
11488;SDS011;5801;50.804;12.638;2023-10-19T05:48:25;11.20;;;7.03;;
11488;SDS011;5801;50.804;12.638;2023-10-19T05:50:52;11.13;;;6.75;;
11488;SDS011;5801;50.804;12.638;2023-10-19T05:53:18;12.18;;;8.23;;
11488;SDS011;5801;50.804;12.638;2023-10-19T05:55:47;11.77;;;8.80;;
11488;SDS011;5801;50.804;12.638;2023-10-19T05:58:16;10.63;;;6.95;;
11488;SDS011;5801;50.804;12.638;2023-10-19T06:00:42;10.80;;;7.75;;
11488;SDS011;5801;50.804;12.638;2023-10-19T06:03:08;13.55;;;8.50;;
11488;SDS011;5801;50.804;12.638;2023-10-19T06:05:35;13.73;;;8.63;;
11488;SDS011;5801;50.804;12.638;2023-10-19T06:08:01;12.48;;;7.95;;
11488;SDS011;5801;50.804;12.638;2023-10-19T06:10:27;12.10;;;7.68;;
11488;SDS011;5801;50.804;12.638;2023-10-19T06:12:53;12.07;;;7.78;;
11488;SDS011;5801;50.804;12.638;2023-10-19T06:15:20;11.98;;;8.23;;
11488;SDS011;5801;50.804;12.638;2023-10-19T06:17:49;13.85;;;8.82;;
11488;SDS011;5801;50.804;12.638;2023-10-19T06:20:15;13.52;;;8.02;;
11488;SDS011;5801;50.804;12.638;2023-10-19T06:22:51;14.68;;;7.63;;
11488;SDS011;5801;50.804;12.638;2023-10-19T06:25:25;9.32;;;7.22;;
11488;SDS011;5801;50.804;12.638;2023-10-19T06:27:51;10.43;;;7.13;;
11488;SDS011;5801;50.804;12.638;2023-10-19T06:30:18;12.55;;;7.60;;
11488;SDS011;5801;50.804;12.638;2023-10-19T06:32:47;12.07;;;7.85;;
11488;SDS011;5801;50.804;12.638;2023-10-19T06:35:21;13.32;;;7.72;;
11488;SDS011;5801;50.804;12.638;2023-10-19T06:37:48;12.50;;;7.38;;
11488;SDS011;5801;50.804;12.638;2023-10-19T06:40:15;10.73;;;7.20;;
11488;SDS011;5801;50.804;12.638;2023-10-19T06:42:44;15.63;;;7.85;;
11488;SDS011;5801;50.804;12.638;2023-10-19T06:45:13;12.35;;;7.43;;
11488;SDS011;5801;50.804;12.638;2023-10-19T06:47:45;10.38;;;7.25;;
11488;SDS011;5801;50.804;12.638;2023-10-19T06:50:13;9.85;;;6.88;;
11488;SDS011;5801;50.804;12.638;2023-10-19T06:52:44;12.25;;;7.65;;
11488;SDS011;5801;50.804;12.638;2023-10-19T06:55:14;15.43;;;8.13;;
11488;SDS011;5801;50.804;12.638;2023-10-19T06:57:43;14.43;;;8.35;;
11488;SDS011;5801;50.804;12.638;2023-10-19T07:00:11;11.27;;;7.68;;
11488;SDS011;5801;50.804;12.638;2023-10-19T07:03:04;13.00;;;9.15;;
11488;SDS011;5801;50.804;12.638;2023-10-19T07:05:30;13.02;;;8.57;;
11488;SDS011;5801;50.804;12.638;2023-10-19T07:07:56;11.20;;;7.88;;
11488;SDS011;5801;50.804;12.638;2023-10-19T07:10:24;13.98;;;8.48;;
11488;SDS011;5801;50.804;12.638;2023-10-19T07:12:52;13.30;;;8.68;;
11488;SDS011;5801;50.804;12.638;2023-10-19T07:15:20;12.70;;;7.55;;
11488;SDS011;5801;50.804;12.638;2023-10-19T07:17:50;11.38;;;8.02;;
11488;SDS011;5801;50.804;12.638;2023-10-19T07:20:18;13.18;;;8.48;;
11488;SDS011;5801;50.804;12.638;2023-10-19T07:23:03;11.23;;;7.90;;
11488;SDS011;5801;50.804;12.638;2023-10-19T07:25:43;12.27;;;8.02;;
11488;SDS011;5801;50.804;12.638;2023-10-19T07:28:10;17.63;;;8.48;;
11488;SDS011;5801;50.804;12.638;2023-10-19T07:30:40;13.30;;;9.00;;
11488;SDS011;5801;50.804;12.638;2023-10-19T07:33:10;11.35;;;8.10;;
11488;SDS011;5801;50.804;12.638;2023-10-19T07:35:42;14.23;;;9.02;;
11488;SDS011;5801;50.804;12.638;2023-10-19T07:38:14;12.02;;;8.13;;
11488;SDS011;5801;50.804;12.638;2023-10-19T07:40:47;13.52;;;7.57;;
11488;SDS011;5801;50.804;12.638;2023-10-19T07:43:13;10.52;;;7.80;;
11488;SDS011;5801;50.804;12.638;2023-10-19T07:45:40;11.60;;;7.82;;
11488;SDS011;5801;50.804;12.638;2023-10-19T07:48:07;12.98;;;7.15;;
11488;SDS011;5801;50.804;12.638;2023-10-19T07:50:37;12.10;;;6.75;;
11488;SDS011;5801;50.804;12.638;2023-10-19T07:53:05;14.73;;;9.18;;
11488;SDS011;5801;50.804;12.638;2023-10-19T07:55:31;12.45;;;8.50;;
11488;SDS011;5801;50.804;12.638;2023-10-19T07:57:58;24.42;;;12.40;;
11488;SDS011;5801;50.804;12.638;2023-10-19T08:00:31;17.50;;;10.13;;
11488;SDS011;5801;50.804;12.638;2023-10-19T08:03:00;14.63;;;7.47;;
11488;SDS011;5801;50.804;12.638;2023-10-19T08:05:30;13.05;;;7.93;;
11488;SDS011;5801;50.804;12.638;2023-10-19T08:07:56;12.63;;;7.82;;
11488;SDS011;5801;50.804;12.638;2023-10-19T08:10:24;16.13;;;9.30;;
11488;SDS011;5801;50.804;12.638;2023-10-19T08:12:51;14.45;;;9.82;;
11488;SDS011;5801;50.804;12.638;2023-10-19T08:15:17;14.88;;;9.93;;
11488;SDS011;5801;50.804;12.638;2023-10-19T08:17:45;9.98;;;8.40;;
11488;SDS011;5801;50.804;12.638;2023-10-19T08:20:14;12.85;;;8.00;;
11488;SDS011;5801;50.804;12.638;2023-10-19T08:22:50;15.82;;;7.55;;
11488;SDS011;5801;50.804;12.638;2023-10-19T08:25:17;12.35;;;7.00;;
11488;SDS011;5801;50.804;12.638;2023-10-19T08:27:46;11.23;;;6.35;;
11488;SDS011;5801;50.804;12.638;2023-10-19T08:30:15;7.88;;;6.40;;
11488;SDS011;5801;50.804;12.638;2023-10-19T08:32:43;11.70;;;6.30;;
11488;SDS011;5801;50.804;12.638;2023-10-19T08:35:12;11.52;;;6.93;;
11488;SDS011;5801;50.804;12.638;2023-10-19T08:37:39;11.85;;;7.43;;
11488;SDS011;5801;50.804;12.638;2023-10-19T08:40:07;8.50;;;6.57;;
11488;SDS011;5801;50.804;12.638;2023-10-19T08:42:39;10.27;;;7.25;;
11488;SDS011;5801;50.804;12.638;2023-10-19T08:45:06;11.90;;;7.25;;
11488;SDS011;5801;50.804;12.638;2023-10-19T08:47:34;9.27;;;7.40;;
11488;SDS011;5801;50.804;12.638;2023-10-19T08:50:08;10.63;;;7.53;;
11488;SDS011;5801;50.804;12.638;2023-10-19T08:52:34;9.73;;;7.18;;
11488;SDS011;5801;50.804;12.638;2023-10-19T08:55:01;12.75;;;8.45;;
11488;SDS011;5801;50.804;12.638;2023-10-19T08:57:27;13.05;;;8.02;;
11488;SDS011;5801;50.804;12.638;2023-10-19T08:59:53;13.63;;;7.53;;
11488;SDS011;5801;50.804;12.638;2023-10-19T09:02:23;15.18;;;7.75;;
11488;SDS011;5801;50.804;12.638;2023-10-19T09:04:49;9.65;;;6.90;;
11488;SDS011;5801;50.804;12.638;2023-10-19T09:07:16;13.10;;;7.38;;
11488;SDS011;5801;50.804;12.638;2023-10-19T09:09:43;13.77;;;8.18;;
11488;SDS011;5801;50.804;12.638;2023-10-19T09:12:12;10.45;;;7.07;;
11488;SDS011;5801;50.804;12.638;2023-10-19T09:14:38;10.75;;;7.22;;
11488;SDS011;5801;50.804;12.638;2023-10-19T09:17:08;8.50;;;6.65;;
11488;SDS011;5801;50.804;12.638;2023-10-19T09:19:42;11.13;;;7.22;;
11488;SDS011;5801;50.804;12.638;2023-10-19T09:22:12;11.38;;;7.55;;
11488;SDS011;5801;50.804;12.638;2023-10-19T09:24:43;12.32;;;8.15;;
11488;SDS011;5801;50.804;12.638;2023-10-19T09:27:18;11.55;;;7.43;;
11488;SDS011;5801;50.804;12.638;2023-10-19T09:29:45;12.60;;;7.68;;
11488;SDS011;5801;50.804;12.638;2023-10-19T09:32:16;10.43;;;7.15;;
11488;SDS011;5801;50.804;12.638;2023-10-19T09:34:42;12.27;;;7.20;;
11488;SDS011;5801;50.804;12.638;2023-10-19T09:37:10;10.20;;;7.03;;
11488;SDS011;5801;50.804;12.638;2023-10-19T09:39:36;13.38;;;7.40;;
11488;SDS011;5801;50.804;12.638;2023-10-19T09:44:42;10.88;;;7.22;;
11488;SDS011;5801;50.804;12.638;2023-10-19T09:47:11;11.77;;;6.88;;
11488;SDS011;5801;50.804;12.638;2023-10-19T09:49:40;11.40;;;6.43;;
11488;SDS011;5801;50.804;12.638;2023-10-19T09:52:07;10.10;;;6.82;;
11488;SDS011;5801;50.804;12.638;2023-10-19T09:54:52;8.68;;;6.03;;
11488;SDS011;5801;50.804;12.638;2023-10-19T09:57:36;10.05;;;6.53;;
11488;SDS011;5801;50.804;12.638;2023-10-19T10:00:12;10.57;;;6.30;;
11488;SDS011;5801;50.804;12.638;2023-10-19T10:02:39;8.30;;;6.57;;
11488;SDS011;5801;50.804;12.638;2023-10-19T10:10:44;11.82;;;6.70;;
11488;SDS011;5801;50.804;12.638;2023-10-19T10:15:49;9.25;;;6.65;;
11488;SDS011;5801;50.804;12.638;2023-10-19T10:18:32;11.98;;;7.63;;
11488;SDS011;5801;50.804;12.638;2023-10-19T10:21:06;10.43;;;7.65;;
11488;SDS011;5801;50.804;12.638;2023-10-19T10:23:40;12.52;;;7.95;;
11488;SDS011;5801;50.804;12.638;2023-10-19T10:26:07;9.70;;;7.10;;
11488;SDS011;5801;50.804;12.638;2023-10-19T10:28:34;9.88;;;7.00;;
11488;SDS011;5801;50.804;12.638;2023-10-19T10:31:10;8.20;;;6.40;;
11488;SDS011;5801;50.804;12.638;2023-10-19T10:36:17;8.73;;;6.05;;
11488;SDS011;5801;50.804;12.638;2023-10-19T10:38:44;9.15;;;6.10;;
11488;SDS011;5801;50.804;12.638;2023-10-19T10:41:12;9.93;;;5.50;;
11488;SDS011;5801;50.804;12.638;2023-10-19T10:43:51;11.32;;;6.10;;
11488;SDS011;5801;50.804;12.638;2023-10-19T10:46:22;7.03;;;5.72;;
11488;SDS011;5801;50.804;12.638;2023-10-19T10:48:50;8.80;;;5.10;;
11488;SDS011;5801;50.804;12.638;2023-10-19T10:51:20;7.07;;;5.53;;
11488;SDS011;5801;50.804;12.638;2023-10-19T10:53:50;9.07;;;6.28;;
11488;SDS011;5801;50.804;12.638;2023-10-19T10:56:22;10.32;;;6.00;;
11488;SDS011;5801;50.804;12.638;2023-10-19T10:58:49;9.30;;;6.32;;
11488;SDS011;5801;50.804;12.638;2023-10-19T11:01:15;7.90;;;5.05;;
11488;SDS011;5801;50.804;12.638;2023-10-19T11:04:10;6.60;;;4.68;;
11488;SDS011;5801;50.804;12.638;2023-10-19T11:06:49;9.48;;;4.90;;
11488;SDS011;5801;50.804;12.638;2023-10-19T11:09:21;6.47;;;4.70;;
11488;SDS011;5801;50.804;12.638;2023-10-19T11:11:47;6.90;;;5.13;;
11488;SDS011;5801;50.804;12.638;2023-10-19T11:14:14;7.13;;;5.68;;
11488;SDS011;5801;50.804;12.638;2023-10-19T11:16:40;7.95;;;5.25;;
11488;SDS011;5801;50.804;12.638;2023-10-19T11:19:08;6.05;;;4.50;;
11488;SDS011;5801;50.804;12.638;2023-10-19T11:21:34;8.77;;;4.47;;
11488;SDS011;5801;50.804;12.638;2023-10-19T11:24:00;7.93;;;4.80;;
11488;SDS011;5801;50.804;12.638;2023-10-19T11:26:27;4.05;;;3.40;;
11488;SDS011;5801;50.804;12.638;2023-10-19T11:29:02;4.93;;;3.88;;
11488;SDS011;5801;50.804;12.638;2023-10-19T11:31:34;6.40;;;4.32;;
11488;SDS011;5801;50.804;12.638;2023-10-19T11:34:04;5.90;;;4.22;;
11488;SDS011;5801;50.804;12.638;2023-10-19T11:36:31;5.93;;;4.38;;
11488;SDS011;5801;50.804;12.638;2023-10-19T11:38:58;4.70;;;3.75;;
11488;SDS011;5801;50.804;12.638;2023-10-19T11:41:24;4.57;;;4.07;;
11488;SDS011;5801;50.804;12.638;2023-10-19T11:43:50;5.43;;;4.05;;
11488;SDS011;5801;50.804;12.638;2023-10-19T11:46:16;4.28;;;3.88;;
11488;SDS011;5801;50.804;12.638;2023-10-19T11:48:43;7.40;;;5.38;;
11488;SDS011;5801;50.804;12.638;2023-10-19T11:51:09;4.18;;;3.78;;
11488;SDS011;5801;50.804;12.638;2023-10-19T11:53:40;6.03;;;4.30;;
11488;SDS011;5801;50.804;12.638;2023-10-19T11:56:08;5.00;;;3.67;;
11488;SDS011;5801;50.804;12.638;2023-10-19T11:58:36;5.28;;;4.18;;
11488;SDS011;5801;50.804;12.638;2023-10-19T12:01:05;6.05;;;3.70;;
11488;SDS011;5801;50.804;12.638;2023-10-19T12:03:33;4.13;;;3.10;;
11488;SDS011;5801;50.804;12.638;2023-10-19T12:06:04;3.88;;;3.30;;
11488;SDS011;5801;50.804;12.638;2023-10-19T12:08:34;5.75;;;3.58;;
11488;SDS011;5801;50.804;12.638;2023-10-19T12:11:04;4.55;;;3.40;;
11488;SDS011;5801;50.804;12.638;2023-10-19T12:13:40;4.00;;;3.38;;
11488;SDS011;5801;50.804;12.638;2023-10-19T12:16:08;4.20;;;3.72;;
11488;SDS011;5801;50.804;12.638;2023-10-19T12:18:40;4.95;;;3.67;;
11488;SDS011;5801;50.804;12.638;2023-10-19T12:21:07;6.40;;;3.58;;
11488;SDS011;5801;50.804;12.638;2023-10-19T12:23:38;5.60;;;4.40;;
11488;SDS011;5801;50.804;12.638;2023-10-19T12:26:05;4.80;;;3.70;;
11488;SDS011;5801;50.804;12.638;2023-10-19T12:28:36;6.38;;;4.05;;
11488;SDS011;5801;50.804;12.638;2023-10-19T12:31:03;5.43;;;3.80;;
11488;SDS011;5801;50.804;12.638;2023-10-19T12:33:36;5.40;;;4.28;;
11488;SDS011;5801;50.804;12.638;2023-10-19T12:36:03;7.00;;;5.13;;
11488;SDS011;5801;50.804;12.638;2023-10-19T12:38:56;4.60;;;3.50;;
11488;SDS011;5801;50.804;12.638;2023-10-19T12:41:22;3.38;;;3.00;;
11488;SDS011;5801;50.804;12.638;2023-10-19T12:43:49;3.92;;;3.17;;
11488;SDS011;5801;50.804;12.638;2023-10-19T12:46:33;4.25;;;3.38;;
11488;SDS011;5801;50.804;12.638;2023-10-19T12:49:01;5.97;;;3.25;;
11488;SDS011;5801;50.804;12.638;2023-10-19T12:51:33;5.93;;;3.97;;
11488;SDS011;5801;50.804;12.638;2023-10-19T12:53:59;3.95;;;3.10;;
11488;SDS011;5801;50.804;12.638;2023-10-19T12:56:28;5.90;;;3.50;;
11488;SDS011;5801;50.804;12.638;2023-10-19T12:58:58;6.22;;;4.10;;
11488;SDS011;5801;50.804;12.638;2023-10-19T13:01:24;6.72;;;3.30;;
11488;SDS011;5801;50.804;12.638;2023-10-19T13:03:52;6.07;;;3.10;;
11488;SDS011;5801;50.804;12.638;2023-10-19T13:06:18;5.63;;;4.00;;
11488;SDS011;5801;50.804;12.638;2023-10-19T13:08:44;5.32;;;4.15;;
11488;SDS011;5801;50.804;12.638;2023-10-19T13:11:11;4.93;;;3.80;;
11488;SDS011;5801;50.804;12.638;2023-10-19T13:13:40;5.75;;;3.10;;
11488;SDS011;5801;50.804;12.638;2023-10-19T13:16:06;4.55;;;3.40;;
11488;SDS011;5801;50.804;12.638;2023-10-19T13:18:34;5.05;;;2.75;;
11488;SDS011;5801;50.804;12.638;2023-10-19T13:21:01;5.07;;;3.92;;
11488;SDS011;5801;50.804;12.638;2023-10-19T13:23:31;6.20;;;3.88;;
11488;SDS011;5801;50.804;12.638;2023-10-19T13:26:00;6.28;;;3.97;;
11488;SDS011;5801;50.804;12.638;2023-10-19T13:28:33;6.60;;;3.53;;
11488;SDS011;5801;50.804;12.638;2023-10-19T13:31:03;5.63;;;3.92;;
11488;SDS011;5801;50.804;12.638;2023-10-19T13:33:29;7.82;;;3.95;;
11488;SDS011;5801;50.804;12.638;2023-10-19T13:35:55;6.70;;;3.60;;
11488;SDS011;5801;50.804;12.638;2023-10-19T13:38:21;4.80;;;3.75;;
11488;SDS011;5801;50.804;12.638;2023-10-19T13:40:48;10.35;;;4.97;;
11488;SDS011;5801;50.804;12.638;2023-10-19T13:43:15;6.05;;;4.35;;
11488;SDS011;5801;50.804;12.638;2023-10-19T13:45:43;9.45;;;4.30;;
11488;SDS011;5801;50.804;12.638;2023-10-19T13:48:11;7.47;;;4.43;;
11488;SDS011;5801;50.804;12.638;2023-10-19T13:50:41;6.45;;;3.70;;
11488;SDS011;5801;50.804;12.638;2023-10-19T13:53:13;5.40;;;3.60;;
11488;SDS011;5801;50.804;12.638;2023-10-19T13:55:42;5.93;;;4.45;;
11488;SDS011;5801;50.804;12.638;2023-10-19T13:58:08;13.32;;;6.05;;
11488;SDS011;5801;50.804;12.638;2023-10-19T14:00:36;11.93;;;5.88;;
11488;SDS011;5801;50.804;12.638;2023-10-19T14:03:05;19.00;;;7.13;;
11488;SDS011;5801;50.804;12.638;2023-10-19T14:05:38;14.80;;;6.22;;
11488;SDS011;5801;50.804;12.638;2023-10-19T14:08:08;10.20;;;5.68;;
11488;SDS011;5801;50.804;12.638;2023-10-19T14:10:35;5.63;;;3.95;;
11488;SDS011;5801;50.804;12.638;2023-10-19T14:13:01;7.82;;;4.32;;
11488;SDS011;5801;50.804;12.638;2023-10-19T14:15:27;7.40;;;4.13;;
11488;SDS011;5801;50.804;12.638;2023-10-19T14:17:55;7.95;;;3.97;;
11488;SDS011;5801;50.804;12.638;2023-10-19T14:20:25;4.32;;;3.25;;
11488;SDS011;5801;50.804;12.638;2023-10-19T14:22:53;5.80;;;3.75;;
11488;SDS011;5801;50.804;12.638;2023-10-19T14:25:20;6.88;;;3.80;;
11488;SDS011;5801;50.804;12.638;2023-10-19T14:27:47;6.93;;;3.50;;
11488;SDS011;5801;50.804;12.638;2023-10-19T14:30:16;4.10;;;2.72;;
11488;SDS011;5801;50.804;12.638;2023-10-19T14:32:46;6.43;;;2.33;;
11488;SDS011;5801;50.804;12.638;2023-10-19T14:35:14;4.80;;;2.80;;
11488;SDS011;5801;50.804;12.638;2023-10-19T14:37:44;3.65;;;2.55;;
11488;SDS011;5801;50.804;12.638;2023-10-19T14:40:15;4.47;;;3.10;;
11488;SDS011;5801;50.804;12.638;2023-10-19T14:42:45;2.83;;;2.30;;
11488;SDS011;5801;50.804;12.638;2023-10-19T14:45:11;6.63;;;3.97;;
11488;SDS011;5801;50.804;12.638;2023-10-19T14:47:41;4.40;;;2.97;;
11488;SDS011;5801;50.804;12.638;2023-10-19T14:50:12;6.63;;;2.90;;
11488;SDS011;5801;50.804;12.638;2023-10-19T14:52:40;2.60;;;2.33;;
11488;SDS011;5801;50.804;12.638;2023-10-19T14:55:11;3.95;;;2.70;;
11488;SDS011;5801;50.804;12.638;2023-10-19T14:57:40;8.05;;;3.05;;
11488;SDS011;5801;50.804;12.638;2023-10-19T15:00:10;6.72;;;3.00;;
11488;SDS011;5801;50.804;12.638;2023-10-19T15:02:50;4.72;;;3.13;;
11488;SDS011;5801;50.804;12.638;2023-10-19T15:05:19;5.40;;;2.72;;
11488;SDS011;5801;50.804;12.638;2023-10-19T15:07:46;5.28;;;2.80;;
11488;SDS011;5801;50.804;12.638;2023-10-19T15:10:23;5.38;;;3.10;;
11488;SDS011;5801;50.804;12.638;2023-10-19T15:12:53;4.80;;;4.30;;